createdAt,value
2023-05-15T00:01:27.047Z,32.09
2023-05-15T00:03:55.092Z,32.18
2023-05-15T00:06:23.386Z,32.28
2023-05-15T00:08:51.002Z,32.23
2023-05-15T00:11:18.516Z,32.25
2023-05-15T00:13:46.080Z,32.42
2023-05-15T00:16:14.180Z,32.43
2023-05-15T00:18:41.743Z,32.52
2023-05-15T00:21:09.279Z,32.36
2023-05-15T00:23:36.768Z,32.32
2023-05-15T00:26:04.380Z,32.54
2023-05-15T00:28:31.825Z,32.41
2023-05-15T00:30:59.358Z,32.48
2023-05-15T00:33:26.835Z,32.62
2023-05-15T00:35:54.393Z,32.59
2023-05-15T00:38:22.035Z,32.60
2023-05-15T00:40:49.595Z,32.66
2023-05-15T00:43:18.273Z,32.67
2023-05-15T00:45:46.287Z,32.61
2023-05-15T00:48:14.358Z,32.55
2023-05-15T00:50:43.308Z,32.63
2023-05-15T00:53:11.178Z,32.66
2023-05-15T00:55:40.885Z,32.85
2023-05-15T00:58:13.580Z,32.90
2023-05-15T01:00:43.766Z,32.83
2023-05-15T01:03:11.842Z,32.81
2023-05-15T01:05:39.902Z,32.95
2023-05-15T01:08:20.783Z,32.93
2023-05-15T01:10:52.136Z,33.04
2023-05-15T01:13:21.933Z,33.11
2023-05-15T01:15:52.502Z,33.05
2023-05-15T01:18:20.081Z,33.11
2023-05-15T01:21:05.594Z,33.23
2023-05-15T01:23:46.666Z,33.32
2023-05-15T01:26:33.724Z,33.37
2023-05-15T01:29:23.977Z,33.37
2023-05-15T01:32:02.123Z,33.50
2023-05-15T01:34:50.108Z,33.65
2023-05-15T01:37:25.733Z,33.53
2023-05-15T01:40:01.266Z,33.54
2023-05-15T01:42:33.369Z,33.67
2023-05-15T01:45:06.059Z,33.54
2023-05-15T01:47:41.180Z,33.69
2023-05-15T01:50:14.606Z,33.66
2023-05-15T01:52:47.314Z,33.67
2023-05-15T01:55:16.295Z,33.74
2023-05-15T01:57:47.680Z,33.73
2023-05-15T02:00:16.951Z,33.90
2023-05-15T02:02:46.728Z,33.92
2023-05-15T02:05:15.407Z,34.00
2023-05-15T02:07:44.907Z,34.11
2023-05-15T02:10:14.265Z,34.08
2023-05-15T02:12:42.692Z,34.08
2023-05-15T02:15:11.438Z,34.20
2023-05-15T02:17:39.115Z,34.23
2023-05-15T02:20:09.603Z,34.29
2023-05-15T02:22:37.079Z,34.31
2023-05-15T02:25:04.975Z,34.37
2023-05-15T02:27:46.169Z,34.43
2023-05-15T02:30:35.552Z,34.47
2023-05-15T02:33:14.716Z,34.57
2023-05-15T02:35:49.119Z,34.53
2023-05-15T02:38:23.053Z,34.58
2023-05-15T02:40:54.232Z,34.73
2023-05-15T02:43:22.582Z,34.64
2023-05-15T02:45:52.599Z,34.68
2023-05-15T02:48:22.607Z,34.78
2023-05-15T02:50:52.318Z,34.79
2023-05-15T02:53:19.926Z,34.78
2023-05-15T02:55:50.055Z,34.74
2023-05-15T02:58:17.961Z,34.94
2023-05-15T03:00:45.624Z,34.97
2023-05-15T03:03:13.187Z,34.99
2023-05-15T03:05:40.722Z,35.12
2023-05-15T03:08:08.264Z,34.99
2023-05-15T03:10:35.753Z,35.11
2023-05-15T03:13:03.303Z,35.17
2023-05-15T03:15:30.972Z,35.17
2023-05-15T03:17:58.520Z,35.20
2023-05-15T03:20:26.104Z,35.36
2023-05-15T03:22:53.981Z,35.33
2023-05-15T03:25:22.894Z,35.41
2023-05-15T03:27:50.766Z,35.39
2023-05-15T03:30:18.321Z,35.40
2023-05-15T03:32:46.051Z,35.61
2023-05-15T03:35:14.840Z,35.50
2023-05-15T03:37:42.460Z,35.49
2023-05-15T03:40:10.419Z,35.64
2023-05-15T03:42:37.927Z,35.75
2023-05-15T03:45:06.131Z,35.81
2023-05-15T03:47:33.684Z,35.80
2023-05-15T03:50:01.183Z,35.78
2023-05-15T03:52:28.651Z,35.88
2023-05-15T03:54:56.285Z,35.87
2023-05-15T03:57:23.790Z,35.90
2023-05-15T03:59:51.299Z,35.96
2023-05-15T04:02:18.727Z,36.10
2023-05-15T04:04:46.274Z,36.06
2023-05-15T04:07:13.775Z,36.11
2023-05-15T04:09:41.301Z,36.12
2023-05-15T04:12:09.101Z,36.04
2023-05-15T04:14:36.665Z,36.21
2023-05-15T04:17:04.480Z,36.26
2023-05-15T04:19:32.040Z,36.25
2023-05-15T04:21:59.578Z,36.41
2023-05-15T04:24:27.098Z,36.40
2023-05-15T04:26:54.713Z,36.37
2023-05-15T04:29:23.572Z,36.48
2023-05-15T04:31:51.127Z,36.43
2023-05-15T04:34:18.814Z,36.46
2023-05-15T04:36:46.368Z,36.61
2023-05-15T04:39:14.053Z,36.54
2023-05-15T04:41:41.586Z,36.62
2023-05-15T04:44:09.213Z,36.74
2023-05-15T04:46:37.770Z,36.84
2023-05-15T04:49:06.757Z,36.82
2023-05-15T04:51:34.244Z,36.89
2023-05-15T04:54:01.700Z,36.82
2023-05-15T04:56:29.212Z,36.85
2023-05-15T04:58:56.636Z,36.81
2023-05-15T05:01:25.510Z,36.99
2023-05-15T05:03:53.168Z,36.87
2023-05-15T05:06:21.968Z,37.05
2023-05-15T05:08:49.460Z,37.26
2023-05-15T05:11:17.095Z,37.16
2023-05-15T05:13:44.630Z,37.21
2023-05-15T05:16:12.214Z,37.10
2023-05-15T05:18:39.834Z,37.22
2023-05-15T05:21:07.359Z,37.34
2023-05-15T05:23:34.923Z,37.21
2023-05-15T05:26:04.194Z,37.42
2023-05-15T05:28:35.927Z,37.28
2023-05-15T05:31:03.929Z,37.31
2023-05-15T05:33:34.606Z,37.25
2023-05-15T05:36:02.166Z,37.43
2023-05-15T05:38:32.272Z,37.48
2023-05-15T05:41:01.274Z,37.32
2023-05-15T05:43:28.898Z,37.40
2023-05-15T05:45:58.007Z,37.58
2023-05-15T05:48:26.805Z,37.40
2023-05-15T05:50:58.195Z,37.58
2023-05-15T05:53:28.275Z,37.57
2023-05-15T05:55:56.271Z,37.59
2023-05-15T05:58:26.127Z,37.63
2023-05-15T06:00:57.622Z,37.79
2023-05-15T06:03:27.800Z,37.64
2023-05-15T06:05:57.792Z,37.78
2023-05-15T06:08:26.024Z,37.90
2023-05-15T06:10:53.934Z,37.76
2023-05-15T06:13:22.169Z,37.90
2023-05-15T06:15:51.345Z,37.92
2023-05-15T06:18:18.928Z,37.98
2023-05-15T06:20:46.991Z,38.04
2023-05-15T06:23:14.543Z,38.21
2023-05-15T06:25:42.426Z,38.29
2023-05-15T06:28:09.925Z,38.40
2023-05-15T06:30:37.515Z,38.42
2023-05-15T06:33:05.292Z,38.72
2023-05-15T06:35:32.999Z,38.78
2023-05-15T06:38:00.876Z,39.05
2023-05-15T06:40:28.562Z,39.18
2023-05-15T06:42:59.071Z,39.00
2023-05-15T06:45:27.499Z,39.17
2023-05-15T06:47:55.613Z,39.40
2023-05-15T06:50:23.412Z,39.44
2023-05-15T06:52:51.394Z,39.51
2023-05-15T06:55:20.659Z,39.72
2023-05-15T06:57:48.125Z,39.77
2023-05-15T07:00:16.336Z,39.89
2023-05-15T07:02:44.163Z,40.13
2023-05-15T07:05:11.816Z,40.38
2023-05-15T07:07:39.618Z,40.41
2023-05-15T07:10:08.413Z,40.59
2023-05-15T07:12:36.028Z,40.83
2023-05-15T07:15:13.564Z,40.85
2023-05-15T07:17:41.185Z,41.28
2023-05-15T07:20:09.437Z,41.52
2023-05-15T07:22:44.623Z,41.67
2023-05-15T07:25:17.192Z,42.01
2023-05-15T07:27:45.066Z,42.17
2023-05-15T07:30:13.149Z,42.22
2023-05-15T07:32:41.418Z,42.32
2023-05-15T07:35:11.412Z,42.47
2023-05-15T07:37:39.356Z,42.60
2023-05-15T07:40:07.990Z,42.90
2023-05-15T07:42:35.663Z,42.96
2023-05-15T07:45:03.379Z,43.17
2023-05-15T07:47:30.966Z,43.44
2023-05-15T07:49:58.667Z,43.81
2023-05-15T07:52:27.035Z,44.03
2023-05-15T07:54:57.282Z,43.98
2023-05-15T07:57:26.649Z,44.08
2023-05-15T07:59:54.160Z,44.33
2023-05-15T08:02:21.692Z,44.42
2023-05-15T08:04:49.365Z,44.66
2023-05-15T08:07:16.966Z,44.96
2023-05-15T08:09:44.457Z,44.89
2023-05-15T08:12:23.412Z,44.94
2023-05-15T08:14:53.281Z,45.32
2023-05-15T08:17:21.905Z,45.34
2023-05-15T08:19:49.694Z,45.47
2023-05-15T08:22:17.930Z,45.68
2023-05-15T08:24:45.655Z,45.79
2023-05-15T08:27:13.595Z,45.98
2023-05-15T08:29:41.586Z,46.14
2023-05-15T08:32:10.248Z,46.24
2023-05-15T08:34:38.508Z,46.28
2023-05-15T08:37:06.882Z,46.40
2023-05-15T08:39:34.531Z,46.61
2023-05-15T08:42:18.076Z,46.72
2023-05-15T08:44:46.291Z,47.11
2023-05-15T08:47:15.629Z,47.02
2023-05-15T08:50:05.514Z,47.08
2023-05-15T08:52:34.061Z,47.21
2023-05-15T08:55:02.638Z,47.39
2023-05-15T08:57:32.047Z,47.50
2023-05-15T09:00:01.303Z,47.41
2023-05-15T09:02:29.486Z,47.45
2023-05-15T09:04:57.056Z,47.77
2023-05-15T09:07:25.464Z,47.81
2023-05-15T09:09:54.422Z,47.92
2023-05-15T09:12:25.281Z,47.88
2023-05-15T09:15:12.298Z,48.04
2023-05-15T09:17:40.781Z,48.10
2023-05-15T09:20:25.688Z,48.15
2023-05-15T09:22:53.610Z,48.35
2023-05-15T09:25:38.364Z,48.40
2023-05-15T09:28:25.285Z,48.44
2023-05-15T09:30:58.158Z,48.47
2023-05-15T09:33:35.141Z,48.57
2023-05-15T09:36:04.835Z,48.62
2023-05-15T09:38:34.385Z,48.82
2023-05-15T09:41:04.396Z,49.10
2023-05-15T09:43:37.826Z,49.03
2023-05-15T09:46:06.938Z,49.13
2023-05-15T09:48:35.931Z,49.22
2023-05-15T09:51:07.791Z,49.28
2023-05-15T09:53:35.614Z,49.35
2023-05-15T09:56:03.427Z,49.53
2023-05-15T09:58:32.153Z,49.61
2023-05-15T10:01:01.380Z,49.58
2023-05-15T10:03:29.155Z,49.65
2023-05-15T10:06:02.144Z,49.75
2023-05-15T10:08:30.067Z,49.75
2023-05-15T10:11:01.114Z,49.88
2023-05-15T10:13:34.324Z,49.97
2023-05-15T10:16:05.198Z,49.95
2023-05-15T10:18:35.912Z,49.94
2023-05-15T10:21:04.718Z,50.19
2023-05-15T10:23:36.404Z,50.04
2023-05-15T10:26:14.259Z,50.15
2023-05-15T10:28:45.711Z,50.09
2023-05-15T10:31:14.374Z,50.15
2023-05-15T10:33:43.605Z,50.27
2023-05-15T10:36:11.700Z,50.94
2023-05-15T10:38:40.364Z,50.39
2023-05-15T10:41:17.780Z,50.38
2023-05-15T10:43:46.410Z,50.81
2023-05-15T10:46:15.767Z,50.82
2023-05-15T10:48:43.763Z,50.10
2023-05-15T10:51:19.152Z,49.76
2023-05-15T10:53:46.985Z,49.79
2023-05-15T10:56:19.230Z,49.82
2023-05-15T10:58:52.553Z,49.96
2023-05-15T11:01:40.018Z,49.97
2023-05-15T11:04:19.558Z,49.81
2023-05-15T11:06:49.982Z,50.06
2023-05-15T11:09:34.496Z,50.06
2023-05-15T11:12:07.043Z,50.15
2023-05-15T11:14:40.979Z,50.32
2023-05-15T11:17:16.602Z,50.33
2023-05-15T11:19:50.831Z,50.32
2023-05-15T11:22:34.314Z,50.43
2023-05-15T11:25:14.155Z,50.50
2023-05-15T11:27:46.159Z,50.75
2023-05-15T11:30:35.975Z,50.84
2023-05-15T11:33:20.424Z,51.16
2023-05-15T11:35:48.409Z,51.11
2023-05-15T11:38:20.094Z,51.06
2023-05-15T11:40:56.586Z,51.34
2023-05-15T11:43:25.488Z,51.53
2023-05-15T11:45:58.152Z,51.34
2023-05-15T11:48:31.695Z,51.27
2023-05-15T11:51:02.217Z,51.32
2023-05-15T11:53:31.050Z,51.23
2023-05-15T11:55:59.220Z,51.28
2023-05-15T11:58:26.864Z,51.37
2023-05-15T12:00:54.910Z,51.48
2023-05-15T12:03:32.334Z,51.53
2023-05-15T12:06:02.393Z,51.62
2023-05-15T12:08:34.941Z,51.61
2023-05-15T12:11:03.731Z,51.58
2023-05-15T12:13:32.960Z,51.67
2023-05-15T12:16:03.464Z,51.82
2023-05-15T12:18:32.503Z,52.06
2023-05-15T12:21:00.902Z,52.19
2023-05-15T12:23:28.954Z,52.43
2023-05-15T12:26:03.342Z,52.13
2023-05-15T12:28:34.347Z,52.01
2023-05-15T12:31:02.703Z,52.02
2023-05-15T12:33:30.537Z,52.11
2023-05-15T12:36:01.244Z,52.24
2023-05-15T12:38:30.482Z,52.27
2023-05-15T12:40:58.447Z,52.32
2023-05-15T12:43:30.859Z,52.36
2023-05-15T12:45:58.562Z,52.55
2023-05-15T12:48:32.241Z,52.63
2023-05-15T12:51:08.003Z,52.89
2023-05-15T12:53:36.080Z,52.91
2023-05-15T12:56:04.814Z,52.91
2023-05-15T12:58:33.816Z,53.14
2023-05-15T13:01:04.704Z,53.17
2023-05-15T13:03:33.983Z,53.33
2023-05-15T13:06:09.765Z,53.50
2023-05-15T13:08:41.842Z,53.52
2023-05-15T13:11:14.524Z,53.63
2023-05-15T13:13:45.003Z,53.77
2023-05-15T13:16:24.462Z,53.84
2023-05-15T13:18:52.892Z,53.67
2023-05-15T13:21:20.571Z,53.87
2023-05-15T13:23:48.798Z,53.88
2023-05-15T13:26:16.534Z,53.98
2023-05-15T13:28:49.373Z,54.08
2023-05-15T13:31:30.942Z,54.18
2023-05-15T13:33:58.586Z,54.08
2023-05-15T13:36:26.171Z,54.18
2023-05-15T13:38:53.685Z,54.26
2023-05-15T13:41:21.276Z,54.33
2023-05-15T13:43:49.448Z,54.43
2023-05-15T13:46:17.084Z,54.46
2023-05-15T13:48:44.818Z,54.49
2023-05-15T13:51:12.309Z,54.66
2023-05-15T13:53:39.864Z,54.60
2023-05-15T13:56:07.632Z,54.64
2023-05-15T13:58:35.334Z,54.83
2023-05-15T14:01:07.105Z,54.86
2023-05-15T14:03:34.885Z,55.06
2023-05-15T14:06:03.927Z,55.02
2023-05-15T14:08:31.532Z,55.23
2023-05-15T14:10:59.191Z,55.07
2023-05-15T14:13:26.686Z,55.14
2023-05-15T14:15:54.919Z,55.23
2023-05-15T14:18:22.480Z,55.21
2023-05-15T14:20:49.998Z,55.33
2023-05-15T14:23:17.566Z,55.30
2023-05-15T14:25:45.046Z,55.30
2023-05-15T14:28:13.019Z,55.50
2023-05-15T14:30:40.561Z,55.50
2023-05-15T14:33:08.183Z,55.66
2023-05-15T14:35:36.003Z,55.60
2023-05-15T14:38:04.526Z,55.67
2023-05-15T14:40:32.041Z,55.80
2023-05-15T14:42:59.538Z,55.86
2023-05-15T14:45:27.191Z,55.89
2023-05-15T14:47:54.816Z,55.90
2023-05-15T14:50:22.284Z,55.96
2023-05-15T14:52:49.805Z,55.92
2023-05-15T14:55:22.658Z,56.17
2023-05-15T14:57:50.249Z,56.18
2023-05-15T15:00:17.977Z,56.20
2023-05-15T15:02:46.441Z,56.16
2023-05-15T15:05:17.499Z,56.32
2023-05-15T15:08:05.136Z,56.39
2023-05-15T15:10:35.085Z,56.54
2023-05-15T15:13:04.025Z,56.55
2023-05-15T15:15:34.287Z,56.55
2023-05-15T15:18:02.288Z,56.63
2023-05-15T15:20:30.040Z,56.66
2023-05-15T15:22:57.768Z,56.74
2023-05-15T15:25:25.528Z,56.74
2023-05-15T15:27:53.230Z,56.76
2023-05-15T15:30:22.274Z,56.99
2023-05-15T15:32:49.876Z,57.00
2023-05-15T15:35:17.684Z,57.09
2023-05-15T15:37:45.250Z,57.10
2023-05-15T15:40:12.883Z,57.10
2023-05-15T15:42:40.513Z,57.12
2023-05-15T15:45:08.552Z,57.05
2023-05-15T15:47:36.701Z,57.25
2023-05-15T15:50:04.586Z,57.47
2023-05-15T15:52:32.132Z,57.43
2023-05-15T15:54:59.657Z,57.49
2023-05-15T15:57:29.624Z,57.41
2023-05-15T15:59:57.288Z,57.54
2023-05-15T16:02:24.940Z,57.63
2023-05-15T16:04:52.690Z,57.52
2023-05-15T16:07:20.687Z,57.74
2023-05-15T16:09:56.891Z,57.69
2023-05-15T16:12:35.787Z,57.74
2023-05-15T16:15:20.118Z,57.76
2023-05-15T16:17:54.982Z,57.98
2023-05-15T16:20:25.018Z,57.94
2023-05-15T16:22:53.157Z,57.89
2023-05-15T16:25:20.944Z,57.99
2023-05-15T16:27:48.627Z,57.90
2023-05-15T16:30:16.542Z,58.07
2023-05-15T16:32:44.267Z,57.97
2023-05-15T16:35:12.383Z,58.07
2023-05-15T16:37:40.057Z,58.11
2023-05-15T16:40:08.440Z,58.38
2023-05-15T16:42:38.244Z,58.13
2023-05-15T16:45:06.915Z,58.31
2023-05-15T16:47:36.583Z,58.32
2023-05-15T16:50:05.518Z,58.42
2023-05-15T16:52:33.137Z,58.53
2023-05-15T16:55:00.782Z,58.49
2023-05-15T16:57:28.293Z,58.58
2023-05-15T16:59:56.367Z,58.52
2023-05-15T17:02:24.018Z,58.52
2023-05-15T17:04:53.265Z,58.61
2023-05-15T17:07:21.088Z,58.60
2023-05-15T17:09:52.303Z,58.66
2023-05-15T17:12:19.788Z,58.68
2023-05-15T17:14:47.261Z,58.88
2023-05-15T17:17:14.825Z,58.80
2023-05-15T17:19:42.355Z,58.86
2023-05-15T17:22:09.918Z,58.92
2023-05-15T17:24:49.990Z,59.10
2023-05-15T17:27:19.296Z,58.99
2023-05-15T17:29:46.836Z,59.10
2023-05-15T17:32:15.836Z,59.05
2023-05-15T17:34:43.544Z,59.14
2023-05-15T17:37:11.235Z,59.07
2023-05-15T17:39:38.890Z,59.17
2023-05-15T17:42:06.498Z,59.19
2023-05-15T17:44:34.017Z,59.36
2023-05-15T17:47:03.051Z,59.43
2023-05-15T17:49:30.603Z,59.42
2023-05-15T17:51:58.422Z,59.41
2023-05-15T17:54:26.092Z,59.52
2023-05-15T17:56:53.599Z,59.61
2023-05-15T17:59:21.256Z,59.67
2023-05-15T18:01:48.927Z,59.46
2023-05-15T18:04:16.628Z,59.75
2023-05-15T18:06:44.378Z,59.75
2023-05-15T18:09:12.000Z,59.71
2023-05-15T18:11:39.558Z,59.72
2023-05-15T18:14:07.193Z,59.73
2023-05-15T18:16:34.775Z,59.93
2023-05-15T18:19:02.400Z,59.87
2023-05-15T18:21:29.874Z,59.99
2023-05-15T18:23:57.339Z,60.16
2023-05-15T18:26:25.743Z,60.08
2023-05-15T18:28:53.288Z,60.24
2023-05-15T18:31:20.899Z,60.19
2023-05-15T18:33:48.541Z,60.19
2023-05-15T18:36:16.221Z,60.12
2023-05-15T18:38:43.781Z,60.26
2023-05-15T18:41:11.274Z,60.32
2023-05-15T18:43:38.834Z,60.49
2023-05-15T18:46:06.467Z,60.55
2023-05-15T18:48:34.062Z,60.51
2023-05-15T18:51:02.304Z,60.57
2023-05-15T18:53:30.163Z,60.57
2023-05-15T18:55:57.763Z,60.76
2023-05-15T18:58:25.599Z,60.73
2023-05-15T19:00:53.345Z,60.79
2023-05-15T19:03:21.071Z,60.92
2023-05-15T19:05:48.757Z,61.14
2023-05-15T19:08:16.390Z,61.10
2023-05-15T19:10:48.289Z,61.26
2023-05-15T19:13:16.629Z,61.11
2023-05-15T19:15:52.238Z,61.42
2023-05-15T19:18:20.166Z,61.43
2023-05-15T19:20:52.368Z,61.33
2023-05-15T19:23:23.903Z,61.36
2023-05-15T19:25:51.486Z,61.49
2023-05-15T19:28:18.984Z,61.58
2023-05-15T19:30:46.644Z,61.51
2023-05-15T19:33:15.947Z,61.49
2023-05-15T19:35:44.824Z,61.66
2023-05-15T19:38:13.433Z,61.78
2023-05-15T19:40:44.344Z,61.72
2023-05-15T19:43:14.116Z,61.71
2023-05-15T19:45:42.193Z,61.87
2023-05-15T19:48:09.758Z,61.92
2023-05-15T19:50:40.619Z,61.92
2023-05-15T19:53:08.367Z,62.04
2023-05-15T19:55:36.107Z,62.06
2023-05-15T19:58:04.088Z,62.10
2023-05-15T20:00:32.307Z,61.99
2023-05-15T20:03:00.960Z,62.09
2023-05-15T20:05:29.073Z,62.13
2023-05-15T20:07:56.598Z,62.17
2023-05-15T20:10:24.701Z,62.29
2023-05-15T20:12:52.727Z,62.40
2023-05-15T20:15:20.237Z,62.53
2023-05-15T20:17:48.985Z,62.61
2023-05-15T20:20:16.620Z,62.38
2023-05-15T20:22:45.057Z,62.35
2023-05-15T20:25:12.646Z,62.49
2023-05-15T20:27:40.323Z,62.51
2023-05-15T20:30:08.603Z,62.46
2023-05-15T20:32:36.300Z,62.57
2023-05-15T20:35:04.313Z,62.51
2023-05-15T20:37:31.906Z,62.54
2023-05-15T20:40:00.004Z,62.71
2023-05-15T20:42:28.489Z,62.64
2023-05-15T20:44:56.166Z,62.83
2023-05-15T20:47:24.670Z,62.90
2023-05-15T20:49:52.253Z,62.96
2023-05-15T20:52:20.782Z,62.93
2023-05-15T20:54:51.074Z,62.94
2023-05-15T20:57:18.618Z,62.92
2023-05-15T20:59:46.302Z,62.92
2023-05-15T21:02:13.837Z,63.01
2023-05-15T21:04:41.594Z,62.92
2023-05-15T21:07:09.248Z,63.01
2023-05-15T21:09:36.786Z,63.11
2023-05-15T21:12:04.562Z,62.97
2023-05-15T21:14:32.122Z,63.00
2023-05-15T21:16:59.604Z,62.99
2023-05-15T21:19:27.216Z,63.10
2023-05-15T21:21:54.721Z,63.23
2023-05-15T21:24:22.257Z,63.24
2023-05-15T21:26:49.808Z,63.15
2023-05-15T21:29:17.280Z,63.19
2023-05-15T21:31:45.290Z,63.31
2023-05-15T21:34:12.838Z,63.40
2023-05-15T21:36:41.367Z,63.36
2023-05-15T21:39:09.471Z,63.30
2023-05-15T21:41:37.108Z,63.39
2023-05-15T21:44:04.815Z,63.40
2023-05-15T21:46:32.517Z,63.44
2023-05-15T21:49:01.773Z,63.35
2023-05-15T21:51:29.363Z,63.41
2023-05-15T21:53:58.373Z,63.58
2023-05-15T21:56:25.921Z,63.50
2023-05-15T21:58:53.551Z,63.57
2023-05-15T22:01:21.096Z,63.52
2023-05-15T22:03:48.849Z,63.56
2023-05-15T22:06:17.766Z,63.49
2023-05-15T22:08:45.318Z,63.55
2023-05-15T22:11:12.976Z,63.44
2023-05-15T22:13:40.704Z,63.60
2023-05-15T22:16:17.933Z,63.69
2023-05-15T22:18:47.493Z,63.56
2023-05-15T22:21:15.929Z,63.63
2023-05-15T22:23:43.394Z,63.64
2023-05-15T22:26:12.137Z,63.58
2023-05-15T22:28:39.602Z,63.58
2023-05-15T22:31:07.449Z,63.59
2023-05-15T22:33:35.054Z,63.67
2023-05-15T22:36:02.942Z,63.66
2023-05-15T22:38:30.449Z,63.58
2023-05-15T22:40:58.488Z,63.67
2023-05-15T22:43:26.065Z,63.77
2023-05-15T22:45:53.691Z,63.82
2023-05-15T22:48:22.651Z,63.74
2023-05-15T22:50:52.219Z,63.70
2023-05-15T22:53:19.757Z,63.82
2023-05-15T22:55:48.020Z,63.86
2023-05-15T22:58:16.279Z,63.92
2023-05-15T23:00:44.244Z,63.77
2023-05-15T23:03:11.963Z,63.98
2023-05-15T23:05:40.501Z,63.92
2023-05-15T23:08:08.062Z,63.99
2023-05-15T23:10:35.629Z,64.07
2023-05-15T23:13:04.208Z,64.09
2023-05-15T23:15:31.834Z,64.15
2023-05-15T23:17:59.417Z,64.13
2023-05-15T23:20:27.261Z,64.33
2023-05-15T23:22:55.261Z,64.20
2023-05-15T23:25:22.778Z,64.24
2023-05-15T23:27:50.443Z,64.45
2023-05-15T23:30:18.085Z,64.29
2023-05-15T23:32:45.829Z,64.29
2023-05-15T23:35:13.414Z,64.41
2023-05-15T23:37:41.064Z,64.49
2023-05-15T23:40:08.870Z,64.64
2023-05-15T23:42:36.351Z,64.51
2023-05-15T23:45:04.216Z,64.68
2023-05-15T23:47:31.756Z,64.57
2023-05-15T23:49:59.349Z,64.66
2023-05-15T23:52:27.143Z,64.69
2023-05-15T23:54:54.614Z,64.71
2023-05-15T23:57:22.433Z,64.66
2023-05-15T23:59:50.012Z,64.58
